Terminal Aerodrome Forecast
Issued by NWS

Home | Current Version | Previous Version | Text Only | Print | Product List | Glossary On
Versions: 1 2 3 4 5 6 7 8 9 10 11 12 13 14 15
000
FTAK31 PANC 251140
TAFADU
TAF
PADU 251140Z 2512/2612 14010KT P6SM SCT050
     FM251800 14010KT P6SM BKN030
     FM260000 14012G24KT P6SM FEW025 BKN050
     FM260900 13010KT P6SM OVC025=

USA.gov is the U.S. government's official web portal to all federal, state and local government web resources and services.